world map with CRA marked

CRA - Airport

This information may not be accurate or current and is not valid for navigation or flight planning. No warranty of fitness for any purpose is made or implied.

flag of Romania

Donate via PayPal

Additional information is available on the NEW Great Circle Mapper

Location
City:  Craiova, Dolj, Romania
Name:Craiova International Airport
ICAO / IATA:LRCV / CRA

Details
Type:Airport (Aerodrome, Airfield)
Use:Public/Civil, Military
Latitude:44°19'05"N (44.318139)
Longitude:23°53'19"E (23.888611)
Datum:WGS 1984
Elevation:626 ft (191 m)
Runways:1
Longest:8203 × 148 ft (2500 × 45 m)

Time
Timezone:UTC+2 (DST+5)
Local Time:

Weather
METAR:LRCV  041400Z 31007KT CAVOK 14/07 Q1021
TAF:LRCV  (expired)

Related Locations
Nearby:
Farthest:CHT: 11430 mi / 18394 km
Waitangi [Tuuta], CIT, NZ

Find:

   beyond  
but within

Other Information
Maps:
Sources:

  


 


Great Circle Mapper   Great Circle Mapper
Great Circle Mapper FAQ   Great Circle Mapper FAQ
  Karl's Home Page
KLSē   KLSē Home
   GC on Facebook
Airlines of the World   Airlines of the World
Donate via PayPal


Copyright © 2004-2019, Karl L. Swartz. All rights reserved.
All trademarks mentioned herein belong to their respective owners.

Please see credits for attribution and copyright information.

Karl Swartz <karl@kls2.com>
  Powered by FreeBSD
Valid HTML 4.01!
Labeled with ICRA
hCard Microformat
Geo Microformat